Terminal Aerodrome Forecast
Issued by NWS

Home | Current Version | Previous Version | Text Only | Print | Product List | Glossary On
Versions: 1 2 3 4 5 6 7 8 9 10 11 12 13 14 15 16 17 18 19 20 21 22 23 24 25 26 27 28
000
FTUS44 KOUN 092320
TAFGAG
TAF
KGAG 092320Z 1000/1024 15011G16KT P6SM SCT100 SCT250
     FM100200 15010KT P6SM BKN100
     FM101500 19015KT P6SM SCT100=

USA.gov is the U.S. government's official web portal to all federal, state and local government web resources and services.